Time;durP1;ratioP1;P1;durP2;ratioP2;P2;SDS_P1;SDS_P2;PMS_P1;PMS_P2;Temp;Humidity;BMP_temperature;BMP_pressure;BME280_temperature;BME280_humidity;BME280_pressure;Samples;Min_cycle;Max_cycle;Signal;HPM_P1;HPM_P2
2023/03/15 00:02:02;;;;;;;8.68;3.92;;;;;;;;;;4885324;29;20190;-77
2023/03/15 00:04:28;;;;;;;11.05;4.57;;;;;;;;;;4868611;29;20547;-77
2023/03/15 00:06:54;;;;;;;15.68;5.03;;;;;;;;;;4885409;29;20245;-78
2023/03/15 00:09:21;;;;;;;9.27;4.72;;;;;;;;;;4884373;29;20229;-77
2023/03/15 00:11:48;;;;;;;18.10;5.32;;;;;;;;;;4884372;29;20713;-77
2023/03/15 00:14:14;;;;;;;15.80;5.07;;;;;;;;;;4884304;29;20281;-77
2023/03/15 00:16:41;;;;;;;13.02;5.20;;;;;;;;;;4884222;29;20691;-77
2023/03/15 00:19:07;;;;;;;13.55;5.47;;;;;;;;;;4868480;29;20196;-77
2023/03/15 00:21:34;;;;;;;13.30;5.30;;;;;;;;;;4885798;29;20212;-76
2023/03/15 00:24:00;;;;;;;15.77;6.60;;;;;;;;;;4886240;29;20182;-77
2023/03/15 00:26:26;;;;;;;17.67;7.60;;;;;;;;;;4885536;29;20238;-85
2023/03/15 00:28:52;;;;;;;18.08;5.97;;;;;;;;;;4885593;29;20565;-77
2023/03/15 00:31:22;;;;;;;13.23;6.40;;;;;;;;;;4885769;29;20185;-77
2023/03/15 00:33:48;;;;;;;17.25;6.07;;;;;;;;;;4885900;29;20458;-77
2023/03/15 00:36:15;;;;;;;16.15;6.40;;;;;;;;;;4885882;29;20233;-77
2023/03/15 00:38:45;;;;;;;19.10;6.80;;;;;;;;;;4885652;29;20290;-76
2023/03/15 00:41:12;;;;;;;15.40;6.80;;;;;;;;;;4885099;29;20187;-77
2023/03/15 00:43:38;;;;;;;15.43;6.95;;;;;;;;;;4884967;29;20196;-76
2023/03/15 00:46:04;;;;;;;18.98;7.00;;;;;;;;;;4885592;29;20185;-77
2023/03/15 00:48:31;;;;;;;16.70;6.47;;;;;;;;;;4885302;29;20237;-78
2023/03/15 00:51:07;;;;;;;15.68;6.90;;;;;;;;;;4885072;29;20184;-78
2023/03/15 00:53:34;;;;;;;12.27;6.57;;;;;;;;;;4885599;29;20315;-77
2023/03/15 00:56:03;;;;;;;14.77;6.60;;;;;;;;;;4885821;29;20183;-77
2023/03/15 00:58:29;;;;;;;12.30;7.65;;;;;;;;;;4885144;29;20186;-78
2023/03/15 01:00:55;;;;;;;16.50;6.50;;;;;;;;;;4885579;29;20613;-77
2023/03/15 01:03:21;;;;;;;11.67;6.87;;;;;;;;;;4885005;29;20494;-77
2023/03/15 01:05:47;;;;;;;12.27;6.40;;;;;;;;;;4885222;29;20463;-77
2023/03/15 01:08:13;;;;;;;16.50;6.40;;;;;;;;;;4884426;29;20422;-77
2023/03/15 01:10:39;;;;;;;11.45;5.68;;;;;;;;;;4885282;29;20924;-77
2023/03/15 01:13:06;;;;;;;13.13;6.80;;;;;;;;;;4885491;29;20184;-77
2023/03/15 01:15:32;;;;;;;17.55;7.25;;;;;;;;;;4884860;29;20416;-78
2023/03/15 01:17:58;;;;;;;14.25;5.85;;;;;;;;;;4885411;29;20232;-76
2023/03/15 01:20:24;;;;;;;8.80;5.13;;;;;;;;;;4884901;29;20681;-75
2023/03/15 01:22:50;;;;;;;11.55;6.10;;;;;;;;;;4885186;29;20498;-75
2023/03/15 01:25:16;;;;;;;19.00;6.03;;;;;;;;;;4885077;29;20185;-75
2023/03/15 01:27:42;;;;;;;12.60;6.22;;;;;;;;;;4884760;29;20546;-76
2023/03/15 01:30:08;;;;;;;12.70;6.53;;;;;;;;;;4884765;29;20207;-76
2023/03/15 01:32:34;;;;;;;15.52;5.93;;;;;;;;;;4884302;29;20509;-77
2023/03/15 01:35:00;;;;;;;13.25;6.43;;;;;;;;;;4885128;29;20174;-76
2023/03/15 01:37:26;;;;;;;13.98;7.20;;;;;;;;;;4884296;29;20288;-76
2023/03/15 01:39:52;;;;;;;11.45;6.07;;;;;;;;;;4884656;29;20194;-76
2023/03/15 01:42:18;;;;;;;7.53;5.63;;;;;;;;;;4852537;29;20204;-76
2023/03/15 01:44:49;;;;;;;8.90;5.95;;;;;;;;;;4884586;29;20419;-76
2023/03/15 01:47:14;;;;;;;16.00;6.10;;;;;;;;;;4884152;29;20202;-76
2023/03/15 01:49:42;;;;;;;15.60;6.27;;;;;;;;;;4866966;29;20221;-76
2023/03/15 01:52:16;;;;;;;10.60;5.35;;;;;;;;;;4884303;29;20414;-77
2023/03/15 01:54:48;;;;;;;17.85;6.28;;;;;;;;;;4884006;29;20209;-77
2023/03/15 01:57:17;;;;;;;20.95;5.95;;;;;;;;;;4884510;29;20184;-77
2023/03/15 01:59:50;;;;;;;15.38;6.03;;;;;;;;;;4883802;29;20192;-77
2023/03/15 02:02:16;;;;;;;13.75;6.90;;;;;;;;;;4884099;29;20179;-76
2023/03/15 02:04:47;;;;;;;15.80;6.40;;;;;;;;;;4884247;29;20178;-76
2023/03/15 02:07:14;;;;;;;8.90;5.22;;;;;;;;;;4885129;29;20181;-76
2023/03/15 02:09:43;;;;;;;12.70;6.70;;;;;;;;;;4883631;29;20241;-76
2023/03/15 02:12:10;;;;;;;9.07;5.70;;;;;;;;;;4867316;29;20198;-76
2023/03/15 02:14:37;;;;;;;15.63;6.10;;;;;;;;;;4884233;29;20177;-75
2023/03/15 02:17:03;;;;;;;12.57;5.82;;;;;;;;;;4884743;29;20188;-75
2023/03/15 02:19:48;;;;;;;12.82;5.95;;;;;;;;;;4883552;29;20189;-80
2023/03/15 02:22:33;;;;;;;9.77;5.75;;;;;;;;;;4882733;29;20227;-80
2023/03/15 02:25:11;;;;;;;10.80;6.03;;;;;;;;;;4865023;29;20686;-81
2023/03/15 02:27:37;;;;;;;14.02;6.28;;;;;;;;;;4881673;29;20202;-82
2023/03/15 02:30:04;;;;;;;9.20;6.25;;;;;;;;;;4864708;29;20221;-82
2023/03/15 02:32:30;;;;;;;9.30;5.70;;;;;;;;;;4881658;29;20212;-82
2023/03/15 02:34:56;;;;;;;9.80;6.05;;;;;;;;;;4881320;29;20534;-82
2023/03/15 02:37:22;;;;;;;10.73;5.35;;;;;;;;;;4881511;29;20231;-82
2023/03/15 02:39:48;;;;;;;7.75;5.20;;;;;;;;;;4881439;29;20186;-82
2023/03/15 02:42:15;;;;;;;6.27;4.30;;;;;;;;;;4881469;29;20664;-82
2023/03/15 02:44:42;;;;;;;12.88;6.20;;;;;;;;;;4865239;29;20447;-82
2023/03/15 02:47:10;;;;;;;9.43;6.07;;;;;;;;;;4881882;29;20180;-81
2023/03/15 02:49:39;;;;;;;11.15;5.53;;;;;;;;;;4864760;29;20200;-81
2023/03/15 02:52:05;;;;;;;9.05;6.18;;;;;;;;;;4881842;29;20186;-81
2023/03/15 02:54:33;;;;;;;9.13;7.13;;;;;;;;;;4881857;29;20255;-81
2023/03/15 02:57:00;;;;;;;11.93;6.55;;;;;;;;;;4865388;29;20179;-81
2023/03/15 02:59:25;;;;;;;7.18;5.65;;;;;;;;;;4881876;29;20193;-81
2023/03/15 03:01:51;;;;;;;8.33;5.90;;;;;;;;;;4864890;29;20189;-81
2023/03/15 03:04:18;;;;;;;8.50;5.88;;;;;;;;;;4881786;29;20530;-81
2023/03/15 03:06:44;;;;;;;12.02;5.80;;;;;;;;;;4865087;29;20196;-81
2023/03/15 03:09:10;;;;;;;9.10;6.15;;;;;;;;;;4881723;29;20292;-81
2023/03/15 03:11:37;;;;;;;6.82;5.60;;;;;;;;;;4881314;29;20235;-81
2023/03/15 03:14:03;;;;;;;7.32;5.63;;;;;;;;;;4864634;29;20192;-81
2023/03/15 03:16:30;;;;;;;9.18;5.88;;;;;;;;;;4881250;29;20177;-82
2023/03/15 03:18:57;;;;;;;10.63;5.45;;;;;;;;;;4864824;29;20203;-82
2023/03/15 03:21:23;;;;;;;11.48;5.75;;;;;;;;;;4881548;29;20193;-82
2023/03/15 03:23:49;;;;;;;6.88;5.30;;;;;;;;;;4880844;29;20269;-82
2023/03/15 03:26:16;;;;;;;9.00;5.45;;;;;;;;;;4864421;29;20213;-82
2023/03/15 03:28:43;;;;;;;12.95;5.68;;;;;;;;;;4880751;29;20564;-83
2023/03/15 03:31:36;;;;;;;12.25;5.43;;;;;;;;;;4864015;29;20188;-84
2023/03/15 03:34:02;;;;;;;11.07;6.10;;;;;;;;;;4882271;29;20188;-84
2023/03/15 03:36:28;;;;;;;8.83;5.47;;;;;;;;;;4867371;29;20247;-84
2023/03/15 03:38:55;;;;;;;11.57;6.17;;;;;;;;;;4867904;29;20780;-84
2023/03/15 03:41:21;;;;;;;10.02;6.07;;;;;;;;;;4884559;29;20412;-83
2023/03/15 03:43:47;;;;;;;11.93;5.60;;;;;;;;;;4884382;29;20564;-84
2023/03/15 03:46:13;;;;;;;8.02;5.35;;;;;;;;;;4884482;29;20520;-83
2023/03/15 03:48:39;;;;;;;9.23;6.00;;;;;;;;;;4884284;29;20320;-84
2023/03/15 03:51:05;;;;;;;8.60;5.30;;;;;;;;;;4867680;29;20187;-83
2023/03/15 03:53:31;;;;;;;7.07;5.45;;;;;;;;;;4883955;29;20416;-83
2023/03/15 03:55:57;;;;;;;7.67;5.50;;;;;;;;;;4851904;29;20291;-83
2023/03/15 03:58:23;;;;;;;8.25;5.68;;;;;;;;;;4883757;29;20422;-83
2023/03/15 04:00:53;;;;;;;7.63;5.80;;;;;;;;;;4883460;29;20184;-82
2023/03/15 04:03:19;;;;;;;8.10;4.57;;;;;;;;;;4867592;29;20431;-82
2023/03/15 04:05:45;;;;;;;7.38;4.93;;;;;;;;;;4883619;29;20233;-82
2023/03/15 04:08:11;;;;;;;8.07;6.50;;;;;;;;;;4883565;29;20202;-82
2023/03/15 04:10:37;;;;;;;7.60;6.30;;;;;;;;;;4867309;29;20414;-82
2023/03/15 04:13:03;;;;;;;9.93;5.80;;;;;;;;;;4883215;29;20496;-82
2023/03/15 04:15:30;;;;;;;12.88;5.93;;;;;;;;;;4866924;29;20435;-81
2023/03/15 04:17:56;;;;;;;12.55;6.65;;;;;;;;;;4866865;29;20210;-82
2023/03/15 04:20:23;;;;;;;9.60;6.13;;;;;;;;;;4866799;29;20184;-82
2023/03/15 04:22:49;;;;;;;12.20;5.60;;;;;;;;;;4883370;29;20229;-82
2023/03/15 04:25:16;;;;;;;8.23;5.72;;;;;;;;;;4866902;29;20188;-81
2023/03/15 04:27:42;;;;;;;7.10;5.97;;;;;;;;;;4883133;29;20300;-83
2023/03/15 04:30:08;;;;;;;9.90;6.57;;;;;;;;;;4867031;29;20268;-82
2023/03/15 04:32:34;;;;;;;12.00;5.55;;;;;;;;;;4851150;29;20432;-83
2023/03/15 04:35:00;;;;;;;11.23;6.65;;;;;;;;;;4851729;29;20366;-83
2023/03/15 04:37:27;;;;;;;10.50;6.05;;;;;;;;;;4866082;29;20243;-84
2023/03/15 04:39:53;;;;;;;7.15;5.75;;;;;;;;;;4883069;29;20256;-82
2023/03/15 04:42:19;;;;;;;8.00;5.82;;;;;;;;;;4883527;29;20260;-82
2023/03/15 04:44:45;;;;;;;10.10;7.32;;;;;;;;;;4865212;29;20191;-83
2023/03/15 04:47:11;;;;;;;7.00;6.30;;;;;;;;;;4883214;29;20188;-82
2023/03/15 04:49:37;;;;;;;11.50;6.65;;;;;;;;;;4866520;29;20218;-82
2023/03/15 04:52:03;;;;;;;9.23;7.03;;;;;;;;;;4882850;29;20195;-82
2023/03/15 04:54:29;;;;;;;13.35;7.30;;;;;;;;;;4866421;29;20636;-81
2023/03/15 04:56:55;;;;;;;7.80;5.15;;;;;;;;;;4883207;29;20180;-81
2023/03/15 04:59:21;;;;;;;10.17;6.80;;;;;;;;;;4883568;29;20214;-80
2023/03/15 05:01:47;;;;;;;9.23;7.82;;;;;;;;;;4866781;29;20501;-80
2023/03/15 05:04:13;;;;;;;9.48;7.05;;;;;;;;;;4866366;29;20704;-80
2023/03/15 05:06:39;;;;;;;12.63;8.05;;;;;;;;;;4866855;29;20271;-80
2023/03/15 05:09:06;;;;;;;12.77;9.98;;;;;;;;;;4883089;29;20576;-80
2023/03/15 05:11:32;;;;;;;10.95;7.63;;;;;;;;;;4867107;29;20189;-79
2023/03/15 05:13:58;;;;;;;15.23;9.60;;;;;;;;;;4883005;29;20186;-79
2023/03/15 05:16:24;;;;;;;10.45;7.68;;;;;;;;;;4866802;29;20192;-79
2023/03/15 05:18:50;;;;;;;12.10;9.70;;;;;;;;;;4866531;29;20181;-79
2023/03/15 05:21:16;;;;;;;12.88;9.73;;;;;;;;;;4883649;29;20228;-79
2023/03/15 05:23:42;;;;;;;10.73;9.23;;;;;;;;;;4883545;29;20184;-79
2023/03/15 05:26:08;;;;;;;13.53;9.20;;;;;;;;;;4866455;29;20416;-79
2023/03/15 05:28:34;;;;;;;13.30;8.70;;;;;;;;;;4883276;29;20506;-79
2023/03/15 05:31:01;;;;;;;11.05;8.98;;;;;;;;;;4883653;29;20358;-79
2023/03/15 05:33:27;;;;;;;12.93;8.73;;;;;;;;;;4883375;29;20270;-79
2023/03/15 05:35:55;;;;;;;13.57;10.50;;;;;;;;;;4883640;29;20280;-79
2023/03/15 05:38:25;;;;;;;15.38;10.15;;;;;;;;;;4883326;29;20412;-79
2023/03/15 05:40:51;;;;;;;13.10;8.52;;;;;;;;;;4883253;29;20191;-79
2023/03/15 05:43:17;;;;;;;12.43;9.50;;;;;;;;;;4866736;29;20189;-79
2023/03/15 05:45:43;;;;;;;17.17;10.40;;;;;;;;;;4883696;29;20220;-79
2023/03/15 05:48:09;;;;;;;18.20;10.80;;;;;;;;;;4882839;29;20914;-79
2023/03/15 05:50:35;;;;;;;14.25;9.93;;;;;;;;;;4866270;29;20193;-79
2023/03/15 05:53:01;;;;;;;13.50;10.45;;;;;;;;;;4865807;29;20233;-80
2023/03/15 05:55:27;;;;;;;14.80;10.15;;;;;;;;;;4882301;29;20545;-81
2023/03/15 05:57:53;;;;;;;12.07;8.73;;;;;;;;;;4882146;29;20187;-80
2023/03/15 06:00:19;;;;;;;13.80;9.88;;;;;;;;;;4882936;29;20533;-79
2023/03/15 06:02:46;;;;;;;15.93;12.38;;;;;;;;;;4882524;29;20541;-80
2023/03/15 06:05:12;;;;;;;19.48;12.95;;;;;;;;;;4882844;29;20654;-81
2023/03/15 06:07:38;;;;;;;12.60;9.77;;;;;;;;;;4865921;29;20189;-80
2023/03/15 06:10:04;;;;;;;10.80;8.98;;;;;;;;;;4882374;29;20550;-80
2023/03/15 06:12:31;;;;;;;12.80;9.93;;;;;;;;;;4882893;29;20276;-80
2023/03/15 06:14:57;;;;;;;29.30;12.18;;;;;;;;;;4882159;29;20188;-80
2023/03/15 06:17:23;;;;;;;16.10;10.32;;;;;;;;;;4865837;29;20189;-79
2023/03/15 06:19:49;;;;;;;14.70;10.80;;;;;;;;;;4865624;29;20324;-80
2023/03/15 06:22:18;;;;;;;17.13;11.63;;;;;;;;;;4882218;29;20653;-80
2023/03/15 06:24:44;;;;;;;19.50;12.60;;;;;;;;;;4867020;29;20188;-81
2023/03/15 06:27:10;;;;;;;15.23;11.70;;;;;;;;;;4882271;29;20206;-80
2023/03/15 06:29:36;;;;;;;17.50;12.93;;;;;;;;;;4882150;29;20303;-80
2023/03/15 06:32:03;;;;;;;19.27;12.80;;;;;;;;;;4865207;29;20196;-80
2023/03/15 06:34:29;;;;;;;20.95;12.60;;;;;;;;;;4850390;29;20181;-80
2023/03/15 06:36:55;;;;;;;19.50;12.20;;;;;;;;;;4882132;29;20232;-79
2023/03/15 06:39:22;;;;;;;20.15;12.95;;;;;;;;;;4882281;29;20280;-80
2023/03/15 06:41:49;;;;;;;19.52;13.13;;;;;;;;;;4882605;29;20176;-82
2023/03/15 06:44:15;;;;;;;23.20;12.90;;;;;;;;;;4882826;29;20181;-79
2023/03/15 06:46:41;;;;;;;23.27;13.48;;;;;;;;;;4866287;29;20184;-78
2023/03/15 06:49:07;;;;;;;24.08;14.00;;;;;;;;;;4850475;29;20216;-78
2023/03/15 06:51:33;;;;;;;20.48;13.93;;;;;;;;;;4866152;29;20239;-78
2023/03/15 06:53:59;;;;;;;21.10;14.18;;;;;;;;;;4865639;29;20185;-78
2023/03/15 06:56:25;;;;;;;26.33;13.68;;;;;;;;;;4882986;29;20188;-78
2023/03/15 06:58:51;;;;;;;20.70;15.40;;;;;;;;;;4865787;29;20661;-78
2023/03/15 07:01:17;;;;;;;28.55;16.13;;;;;;;;;;4866256;29;20287;-77
2023/03/15 07:03:43;;;;;;;25.92;14.52;;;;;;;;;;4883031;29;20194;-78
2023/03/15 07:06:09;;;;;;;23.98;14.50;;;;;;;;;;4882464;29;20216;-78
2023/03/15 07:08:35;;;;;;;24.58;14.00;;;;;;;;;;4886112;29;20213;-78
2023/03/15 07:11:02;;;;;;;27.33;14.40;;;;;;;;;;4869843;29;20715;-78
2023/03/15 07:13:28;;;;;;;25.40;15.30;;;;;;;;;;4886076;29;20212;-79
2023/03/15 07:15:55;;;;;;;23.67;14.32;;;;;;;;;;4868996;29;20187;-79
2023/03/15 07:18:21;;;;;;;26.92;15.25;;;;;;;;;;4885878;29;20535;-79
2023/03/15 07:20:54;;;;;;;23.70;15.52;;;;;;;;;;4869096;29;20180;-79
2023/03/15 07:23:20;;;;;;;27.08;16.73;;;;;;;;;;4868859;29;20200;-79
2023/03/15 07:25:48;;;;;;;28.40;15.82;;;;;;;;;;4869030;29;20183;-80
2023/03/15 07:28:14;;;;;;;25.85;15.50;;;;;;;;;;4884827;29;20641;-79
2023/03/15 07:30:40;;;;;;;25.90;17.77;;;;;;;;;;4868559;29;20186;-80
2023/03/15 07:33:06;;;;;;;25.35;16.45;;;;;;;;;;4884690;29;20195;-80
2023/03/15 07:35:32;;;;;;;24.25;15.43;;;;;;;;;;4884816;29;20244;-80
2023/03/15 07:37:58;;;;;;;28.77;15.20;;;;;;;;;;4885461;29;20191;-79
2023/03/15 07:40:25;;;;;;;27.02;16.25;;;;;;;;;;4886084;29;20185;-80
2023/03/15 07:42:51;;;;;;;28.95;16.23;;;;;;;;;;4868874;29;20240;-80
2023/03/15 07:45:17;;;;;;;24.73;16.42;;;;;;;;;;4868142;29;20182;-79
2023/03/15 07:47:43;;;;;;;26.15;15.75;;;;;;;;;;4885754;29;20241;-79
2023/03/15 07:50:11;;;;;;;22.50;14.63;;;;;;;;;;4867889;29;20226;-80
2023/03/15 07:52:37;;;;;;;76.40;39.65;;;;;;;;;;4884928;29;20178;-79
2023/03/15 07:55:07;;;;;;;63.85;33.45;;;;;;;;;;4868161;29;20199;-79
2023/03/15 07:57:33;;;;;;;94.15;47.55;;;;;;;;;;4885241;29;20282;-79
2023/03/15 07:59:59;;;;;;;24.98;15.73;;;;;;;;;;4884936;29;20219;-78
2023/03/15 08:02:25;;;;;;;11.25;7.68;;;;;;;;;;4885223;29;20190;-77
2023/03/15 08:04:52;;;;;;;28.45;16.33;;;;;;;;;;4885215;29;20540;-78
2023/03/15 08:07:18;;;;;;;27.48;16.67;;;;;;;;;;4884413;29;20199;-78
2023/03/15 08:09:45;;;;;;;27.60;17.35;;;;;;;;;;4884959;29;20212;-79
2023/03/15 08:12:11;;;;;;;27.20;15.73;;;;;;;;;;4898797;29;20190;-84
2023/03/15 08:14:37;;;;;;;26.80;17.25;;;;;;;;;;4888547;29;20180;-85
2023/03/15 08:17:03;;;;;;;23.88;16.30;;;;;;;;;;4885613;29;20234;-86
2023/03/15 08:19:29;;;;;;;25.63;16.35;;;;;;;;;;4869947;29;20263;-86
2023/03/15 08:21:55;;;;;;;27.77;14.85;;;;;;;;;;4901800;29;20663;-87
2023/03/15 08:24:21;;;;;;;23.60;13.98;;;;;;;;;;4869865;29;20187;-86
2023/03/15 08:26:48;;;;;;;28.17;15.18;;;;;;;;;;4885191;29;20192;-86
2023/03/15 08:29:14;;;;;;;27.90;15.55;;;;;;;;;;4901693;29;20667;-86
2023/03/15 08:31:40;;;;;;;23.52;15.23;;;;;;;;;;4885431;29;20185;-87
2023/03/15 08:34:06;;;;;;;33.03;16.33;;;;;;;;;;4885033;29;20270;-87
2023/03/15 08:36:32;;;;;;;27.27;15.32;;;;;;;;;;4901872;29;20589;-86
2023/03/15 08:38:58;;;;;;;25.50;15.13;;;;;;;;;;4902131;29;20636;-85
2023/03/15 08:41:24;;;;;;;26.88;16.13;;;;;;;;;;4902525;29;20182;-84
2023/03/15 08:43:50;;;;;;;27.05;15.85;;;;;;;;;;4902419;29;20190;-84
2023/03/15 08:46:17;;;;;;;30.13;13.80;;;;;;;;;;4902650;29;20183;-83
2023/03/15 08:48:43;;;;;;;26.83;14.18;;;;;;;;;;4902372;29;20290;-83
2023/03/15 08:51:09;;;;;;;22.98;13.40;;;;;;;;;;4902808;29;20215;-82
2023/03/15 08:53:35;;;;;;;23.90;11.48;;;;;;;;;;4902496;29;20190;-83
2023/03/15 08:56:01;;;;;;;23.15;10.07;;;;;;;;;;4902024;29;20181;-82
2023/03/15 08:58:27;;;;;;;18.38;10.68;;;;;;;;;;4902516;29;20205;-81
2023/03/15 09:00:53;;;;;;;21.52;11.45;;;;;;;;;;4902923;29;20174;-81
2023/03/15 09:03:19;;;;;;;13.73;8.98;;;;;;;;;;4902108;29;20235;-81
2023/03/15 09:05:45;;;;;;;18.48;9.52;;;;;;;;;;4903098;29;20659;-82
2023/03/15 09:08:12;;;;;;;16.10;8.68;;;;;;;;;;4886285;29;20255;-81
2023/03/15 09:10:38;;;;;;;16.83;8.07;;;;;;;;;;4885844;29;20223;-81
2023/03/15 09:13:04;;;;;;;11.27;8.25;;;;;;;;;;4890083;29;20183;-80
2023/03/15 09:15:31;;;;;;;16.92;9.18;;;;;;;;;;4892978;29;20179;-81
2023/03/15 09:17:57;;;;;;;19.08;10.00;;;;;;;;;;4893363;29;20205;-81
2023/03/15 09:20:26;;;;;;;14.25;9.35;;;;;;;;;;4885481;29;20183;-81
2023/03/15 09:22:54;;;;;;;22.40;9.93;;;;;;;;;;4885981;29;20203;-80
2023/03/15 09:25:20;;;;;;;16.92;9.65;;;;;;;;;;4885444;29;20221;-80
2023/03/15 09:27:46;;;;;;;21.52;11.07;;;;;;;;;;4886042;29;20182;-81
2023/03/15 09:30:13;;;;;;;16.55;9.90;;;;;;;;;;4869344;29;20219;-80
2023/03/15 09:32:39;;;;;;;16.20;8.55;;;;;;;;;;4885961;29;20175;-81
2023/03/15 09:35:06;;;;;;;16.88;7.78;;;;;;;;;;4885417;29;20707;-81
2023/03/15 09:37:32;;;;;;;11.00;7.82;;;;;;;;;;4902021;29;20234;-81
2023/03/15 09:39:58;;;;;;;13.02;7.90;;;;;;;;;;4885129;29;20194;-81
2023/03/15 09:42:24;;;;;;;13.68;8.65;;;;;;;;;;4901699;29;20177;-81
2023/03/15 09:44:53;;;;;;;12.20;9.10;;;;;;;;;;4885010;29;20563;-81
2023/03/15 09:47:22;;;;;;;12.82;7.70;;;;;;;;;;4901709;29;20174;-80
2023/03/15 09:49:51;;;;;;;10.95;7.38;;;;;;;;;;4901292;29;20210;-80
2023/03/15 09:52:27;;;;;;;9.82;6.45;;;;;;;;;;4884961;29;20186;-81
2023/03/15 09:55:11;;;;;;;9.65;5.55;;;;;;;;;;4885367;29;20265;-81
2023/03/15 09:57:37;;;;;;;10.65;6.55;;;;;;;;;;4890450;29;20187;-81
2023/03/15 10:00:10;;;;;;;7.97;5.20;;;;;;;;;;4909225;29;20560;-81
2023/03/15 10:02:37;;;;;;;11.27;5.00;;;;;;;;;;4901874;29;20186;-81
2023/03/15 10:05:06;;;;;;;7.93;4.20;;;;;;;;;;4883964;29;20278;-81
2023/03/15 10:07:32;;;;;;;8.25;4.45;;;;;;;;;;4901214;29;20196;-81
2023/03/15 10:09:58;;;;;;;9.30;4.45;;;;;;;;;;4901257;29;20214;-80
2023/03/15 10:12:30;;;;;;;6.20;4.38;;;;;;;;;;4869142;29;20198;-80
2023/03/15 10:15:17;;;;;;;8.80;3.80;;;;;;;;;;4884506;29;20174;-80
2023/03/15 10:17:52;;;;;;;7.07;4.32;;;;;;;;;;4884313;29;20187;-81
2023/03/15 10:20:21;;;;;;;5.03;4.00;;;;;;;;;;4883931;29;20188;-81
2023/03/15 10:22:47;;;;;;;8.85;4.05;;;;;;;;;;4901408;29;20181;-80
2023/03/15 10:25:19;;;;;;;8.85;3.97;;;;;;;;;;4884005;29;20551;-80
2023/03/15 10:27:57;;;;;;;8.65;4.88;;;;;;;;;;4900832;29;20183;-81
2023/03/15 10:30:27;;;;;;;4.17;3.77;;;;;;;;;;4883718;29;20233;-81
2023/03/15 10:32:59;;;;;;;5.55;3.75;;;;;;;;;;4900953;29;20407;-80
2023/03/15 10:35:25;;;;;;;4.70;2.78;;;;;;;;;;4905085;29;20270;-80
2023/03/15 10:37:51;;;;;;;7.68;3.90;;;;;;;;;;4901059;29;20155;-80
2023/03/15 10:40:37;;;;;;;6.00;4.20;;;;;;;;;;4883240;29;20198;-81
2023/03/15 10:43:12;;;;;;;6.30;3.80;;;;;;;;;;4883613;29;20646;-82
2023/03/15 10:45:38;;;;;;;4.25;3.50;;;;;;;;;;4883439;29;20192;-82
2023/03/15 10:48:04;;;;;;;4.70;3.43;;;;;;;;;;4883404;29;20191;-83
2023/03/15 10:50:31;;;;;;;5.63;3.10;;;;;;;;;;4899957;29;20474;-81
2023/03/15 10:52:58;;;;;;;5.67;3.00;;;;;;;;;;4882843;29;20430;-82
2023/03/15 10:55:33;;;;;;;5.10;3.20;;;;;;;;;;4899321;29;20416;-82
2023/03/15 10:58:11;;;;;;;7.40;2.80;;;;;;;;;;4899687;29;20442;-81
2023/03/15 11:00:37;;;;;;;3.80;3.20;;;;;;;;;;4885432;29;20462;-82
2023/03/15 11:03:15;;;;;;;5.87;3.23;;;;;;;;;;4899470;29;20418;-82
2023/03/15 11:05:42;;;;;;;5.77;3.40;;;;;;;;;;4899694;29;20423;-81
2023/03/15 11:08:19;;;;;;;3.87;2.90;;;;;;;;;;4899282;29;20495;-81
2023/03/15 11:10:50;;;;;;;9.67;3.63;;;;;;;;;;4899617;29;20483;-81
2023/03/15 11:13:20;;;;;;;7.10;3.63;;;;;;;;;;4899385;29;20403;-82
2023/03/15 11:15:49;;;;;;;5.97;3.00;;;;;;;;;;4899596;29;20418;-82
2023/03/15 11:18:19;;;;;;;8.70;3.00;;;;;;;;;;4881996;29;20841;-82
2023/03/15 11:20:45;;;;;;;7.33;3.03;;;;;;;;;;4899270;29;20416;-82
2023/03/15 11:23:17;;;;;;;6.80;3.20;;;;;;;;;;4882269;29;20900;-82
2023/03/15 11:25:43;;;;;;;7.07;2.93;;;;;;;;;;4898912;29;20443;-80
2023/03/15 11:28:15;;;;;;;2.80;2.60;;;;;;;;;;4898706;29;20419;-81
2023/03/15 11:30:41;;;;;;;5.87;3.80;;;;;;;;;;4882694;29;20827;-80
2023/03/15 11:33:08;;;;;;;7.37;3.70;;;;;;;;;;4899115;29;20401;-81
2023/03/15 11:35:47;;;;;;;7.17;3.17;;;;;;;;;;4899570;29;20623;-80
2023/03/15 11:38:26;;;;;;;5.83;2.87;;;;;;;;;;4899490;29;20407;-81
2023/03/15 11:40:55;;;;;;;4.77;2.33;;;;;;;;;;4899294;29;20377;-82
2023/03/15 11:43:24;;;;;;;4.10;2.53;;;;;;;;;;4898743;29;20403;-82
2023/03/15 11:45:50;;;;;;;5.90;2.87;;;;;;;;;;4898626;29;20400;-83
2023/03/15 11:48:31;;;;;;;5.20;2.40;;;;;;;;;;4881827;29;20423;-83
2023/03/15 11:50:58;;;;;;;4.00;2.37;;;;;;;;;;4898841;29;20438;-83
2023/03/15 11:53:27;;;;;;;4.53;2.07;;;;;;;;;;4883204;29;20509;-83
2023/03/15 11:55:53;;;;;;;3.07;1.40;;;;;;;;;;4885122;29;20419;-84
2023/03/15 11:58:28;;;;;;;5.53;1.87;;;;;;;;;;4901884;29;20442;-84
2023/03/15 12:00:55;;;;;;;5.87;1.87;;;;;;;;;;4885273;29;20435;-84
2023/03/15 12:03:35;;;;;;;3.20;1.60;;;;;;;;;;4901653;29;20419;-84
2023/03/15 12:06:13;;;;;;;5.37;1.90;;;;;;;;;;4901677;29;20427;-85
2023/03/15 12:08:44;;;;;;;2.97;1.58;;;;;;;;;;4901712;29;20835;-85
2023/03/15 12:11:12;;;;;;;2.45;1.35;;;;;;;;;;4909685;29;20247;-85
2023/03/15 12:13:50;;;;;;;7.07;1.80;;;;;;;;;;4910144;29;20178;-85
2023/03/15 12:16:19;;;;;;;3.83;2.05;;;;;;;;;;4918438;29;20252;-85
2023/03/15 12:18:46;;;;;;;3.28;1.35;;;;;;;;;;4903970;29;20276;-85
2023/03/15 12:21:12;;;;;;;5.93;1.50;;;;;;;;;;4915451;29;20545;-85
2023/03/15 12:23:42;;;;;;;3.00;1.37;;;;;;;;;;4901329;29;20167;-85
2023/03/15 12:26:27;;;;;;;3.33;1.00;;;;;;;;;;4884493;29;20428;-87
2023/03/15 12:29:02;;;;;;;6.35;1.42;;;;;;;;;;4903856;29;20207;-84
2023/03/15 12:31:52;;;;;;;3.58;1.25;;;;;;;;;;4901847;29;20175;-83
2023/03/15 12:34:29;;;;;;;2.30;1.10;;;;;;;;;;4883604;29;20221;-84
2023/03/15 12:36:57;;;;;;;3.10;1.23;;;;;;;;;;4884904;29;20581;-84
2023/03/15 12:39:37;;;;;;;1.87;1.17;;;;;;;;;;4901602;29;20776;-84
2023/03/15 12:42:03;;;;;;;4.90;1.30;;;;;;;;;;4901386;29;20425;-83
2023/03/15 12:44:32;;;;;;;5.18;1.30;;;;;;;;;;4868781;29;20530;-83
2023/03/15 12:47:03;;;;;;;3.70;1.58;;;;;;;;;;4883666;29;20222;-83
2023/03/15 12:49:31;;;;;;;2.58;1.10;;;;;;;;;;4884139;29;20254;-83
2023/03/15 12:52:00;;;;;;;5.32;1.23;;;;;;;;;;4901741;29;20190;-83
2023/03/15 12:54:37;;;;;;;4.00;1.20;;;;;;;;;;4901602;29;20527;-83
2023/03/15 12:57:04;;;;;;;3.08;1.08;;;;;;;;;;4901803;29;20190;-83
2023/03/15 12:59:32;;;;;;;5.88;1.17;;;;;;;;;;4884164;29;20253;-83
2023/03/15 13:01:59;;;;;;;3.15;1.00;;;;;;;;;;4901308;29;20509;-83
2023/03/15 13:04:29;;;;;;;3.80;1.35;;;;;;;;;;4900032;29;20175;-82
2023/03/15 13:06:56;;;;;;;4.50;2.83;;;;;;;;;;4884459;29;20235;-83
2023/03/15 13:09:28;;;;;;;4.40;1.30;;;;;;;;;;4889167;29;20210;-85
2023/03/15 13:12:09;;;;;;;4.47;1.30;;;;;;;;;;4884254;29;20194;-83
2023/03/15 13:14:54;;;;;;;2.90;1.43;;;;;;;;;;4884272;29;20798;-83
2023/03/15 13:17:23;;;;;;;3.50;1.63;;;;;;;;;;4901054;29;20758;-84
2023/03/15 13:19:54;;;;;;;2.67;1.17;;;;;;;;;;4884851;29;20186;-85
2023/03/15 13:22:31;;;;;;;3.93;1.40;;;;;;;;;;4884303;29;20419;-83
2023/03/15 13:25:08;;;;;;;3.63;1.33;;;;;;;;;;4900834;29;20439;-83
2023/03/15 13:27:34;;;;;;;4.03;1.20;;;;;;;;;;4883846;29;20975;-84
2023/03/15 13:30:27;;;;;;;4.20;1.30;;;;;;;;;;4900521;29;20465;-84
2023/03/15 13:33:08;;;;;;;2.07;1.27;;;;;;;;;;4885455;29;20427;-84
2023/03/15 13:35:41;;;;;;;2.30;1.40;;;;;;;;;;4900562;29;20536;-84
2023/03/15 13:38:26;;;;;;;2.90;1.10;;;;;;;;;;4883810;29;20916;-83
2023/03/15 13:40:53;;;;;;;3.03;1.07;;;;;;;;;;4900008;29;20407;-83
2023/03/15 13:43:20;;;;;;;2.27;1.03;;;;;;;;;;4899983;29;20506;-82
2023/03/15 13:45:46;;;;;;;5.37;1.10;;;;;;;;;;4900549;29;20399;-85
2023/03/15 13:48:12;;;;;;;7.53;1.73;;;;;;;;;;4884099;29;20406;-85
2023/03/15 13:50:38;;;;;;;1.93;1.10;;;;;;;;;;4883359;29;20474;-84
2023/03/15 13:53:04;;;;;;;2.37;0.90;;;;;;;;;;4899892;29;20422;-84
2023/03/15 13:55:35;;;;;;;3.03;1.70;;;;;;;;;;4882784;29;20427;-84
2023/03/15 13:58:05;;;;;;;4.83;1.27;;;;;;;;;;4899840;29;20411;-85
2023/03/15 14:00:34;;;;;;;6.00;1.50;;;;;;;;;;4894545;29;20943;-83
2023/03/15 14:03:02;;;;;;;1.67;0.90;;;;;;;;;;4901727;29;20798;-85
2023/03/15 14:05:29;;;;;;;3.93;1.50;;;;;;;;;;4918283;29;20947;-82
2023/03/15 14:07:58;;;;;;;1.77;1.33;;;;;;;;;;4918766;29;20418;-85
2023/03/15 14:10:31;;;;;;;7.07;1.45;;;;;;;;;;4918260;29;20462;-84
2023/03/15 14:12:58;;;;;;;7.85;1.48;;;;;;;;;;4918521;29;20182;-84
2023/03/15 14:15:27;;;;;;;1.90;1.30;;;;;;;;;;4918070;29;20183;-86
2023/03/15 14:18:13;;;;;;;1.27;0.77;;;;;;;;;;4901772;29;20438;-85
2023/03/15 14:20:42;;;;;;;1.80;1.10;;;;;;;;;;4917617;29;20461;-84
2023/03/15 14:23:11;;;;;;;2.27;1.30;;;;;;;;;;4918573;29;20410;-83
2023/03/15 14:25:37;;;;;;;3.93;1.30;;;;;;;;;;4918608;29;20410;-85
2023/03/15 14:28:04;;;;;;;2.80;1.00;;;;;;;;;;4901454;29;20466;-85
2023/03/15 14:30:31;;;;;;;2.50;1.17;;;;;;;;;;4917798;29;20553;-84
2023/03/15 14:32:58;;;;;;;4.70;1.20;;;;;;;;;;4918335;29;20478;-86
2023/03/15 14:35:31;;;;;;;4.13;1.05;;;;;;;;;;4900466;29;20430;-85
2023/03/15 14:38:07;;;;;;;4.20;1.70;;;;;;;;;;4918089;29;20706;-82
2023/03/15 14:40:35;;;;;;;4.80;1.30;;;;;;;;;;4917967;29;20188;-82